createdAt,value
2018-04-07T00:00:54.157Z,1016.92
2018-04-07T00:01:54.163Z,1016.92
2018-04-07T00:02:54.173Z,1016.94
2018-04-07T00:03:54.198Z,1016.91
2018-04-07T00:04:54.202Z,1016.95
2018-04-07T00:05:54.213Z,1016.91
2018-04-07T00:06:54.234Z,1016.89
2018-04-07T00:07:54.242Z,1016.92
2018-04-07T00:08:54.270Z,1016.89
2018-04-07T00:09:54.273Z,1016.91
2018-04-07T00:10:54.281Z,1016.89
2018-04-07T00:11:54.302Z,1016.87
2018-04-07T00:12:54.312Z,1016.88
2018-04-07T00:13:54.320Z,1016.90
2018-04-07T00:14:54.354Z,1016.89
2018-04-07T00:15:54.351Z,1016.90
2018-04-07T00:16:54.360Z,1016.90
2018-04-07T00:18:54.391Z,1016.83
2018-04-07T00:19:54.399Z,1016.82
2018-04-07T00:20:54.420Z,1016.81
2018-04-07T00:21:54.430Z,1016.81
2018-04-07T00:22:54.439Z,1016.85
2018-04-07T00:23:54.459Z,1016.85
2018-04-07T00:24:54.469Z,1016.84
2018-04-07T00:25:54.479Z,1016.85
2018-04-07T00:26:54.498Z,1016.84
2018-04-07T00:27:54.508Z,1016.80
2018-04-07T00:28:54.528Z,1016.84
2018-04-07T00:29:54.539Z,1016.88
2018-04-07T00:30:54.547Z,1016.88
2018-04-07T00:31:54.568Z,1016.80
2018-04-07T00:32:54.577Z,1016.85
2018-04-07T00:33:54.586Z,1016.83
2018-04-07T00:34:54.607Z,1016.78
2018-04-07T00:35:54.615Z,1016.82
2018-04-07T00:36:54.638Z,1016.82
2018-04-07T00:37:54.648Z,1016.80
2018-04-07T00:38:54.655Z,1016.80
2018-04-07T00:39:54.666Z,1016.78
2018-04-07T00:40:54.686Z,1016.70
2018-04-07T00:41:54.695Z,1016.71
2018-04-07T00:42:54.706Z,1016.69
2018-04-07T00:43:54.731Z,1016.70
2018-04-07T00:44:54.733Z,1016.70
2018-04-07T00:45:54.744Z,1016.65
2018-04-07T00:46:54.764Z,1016.66
2018-04-07T00:47:54.773Z,1016.66
2018-04-07T00:48:54.782Z,1016.61
2018-04-07T00:49:54.804Z,1016.61
2018-04-07T00:50:54.825Z,1016.56
2018-04-07T00:51:54.823Z,1016.54
2018-04-07T00:52:54.843Z,1016.56
2018-04-07T00:53:54.857Z,1016.55
2018-04-07T00:54:54.861Z,1016.58
2018-04-07T00:55:54.870Z,1016.59
2018-04-07T00:56:54.890Z,1016.60
2018-04-07T00:57:55.103Z,1016.53
2018-04-07T00:59:54.929Z,1016.56
2018-04-07T01:00:54.939Z,1016.50
2018-04-07T01:01:54.949Z,1016.52
2018-04-07T01:02:54.968Z,1016.50
2018-04-07T01:03:54.979Z,1016.49
2018-04-07T01:04:54.987Z,1016.50
2018-04-07T01:05:55.013Z,1016.51
2018-04-07T01:06:55.018Z,1016.51
2018-04-07T01:07:55.025Z,1016.48
2018-04-07T01:08:55.046Z,1016.45
2018-04-07T01:09:55.056Z,1016.41
2018-04-07T01:10:55.065Z,1016.38
2018-04-07T01:11:55.085Z,1016.39
2018-04-07T01:12:55.096Z,1016.34
2018-04-07T01:13:55.104Z,1016.32
2018-04-07T01:14:55.125Z,1016.28
2018-04-07T01:15:55.136Z,1016.32
2018-04-07T01:16:55.144Z,1016.33
2018-04-07T01:17:55.152Z,1016.28
2018-04-07T01:18:55.174Z,1016.24
2018-04-07T01:19:55.184Z,1016.24
2018-04-07T01:20:55.192Z,1016.24
2018-04-07T01:21:55.213Z,1016.26
2018-04-07T01:22:55.222Z,1016.25
2018-04-07T01:23:55.232Z,1016.24
2018-04-07T01:24:55.253Z,1016.28
2018-04-07T01:25:55.261Z,1016.28
2018-04-07T01:26:55.270Z,1016.31
2018-04-07T01:27:55.280Z,1016.29
2018-04-07T01:28:55.300Z,1016.29
2018-04-07T01:29:55.311Z,1016.35
2018-04-07T01:30:55.330Z,1016.30
2018-04-07T01:31:55.342Z,1016.37
2018-04-07T01:32:55.349Z,1016.31
2018-04-07T01:33:55.357Z,1016.35
2018-04-07T01:34:55.392Z,1016.35
2018-04-07T01:35:55.388Z,1016.35
2018-04-07T01:36:55.442Z,1016.32
2018-04-07T01:37:55.417Z,1016.33
2018-04-07T01:38:55.426Z,1016.35
2018-04-07T01:39:55.434Z,1016.34
2018-04-07T01:40:55.445Z,1016.36
2018-04-07T01:41:55.466Z,1016.31
2018-04-07T01:42:55.475Z,1016.29
2018-04-07T01:43:55.486Z,1016.31
2018-04-07T01:44:55.510Z,1016.28
2018-04-07T01:45:55.514Z,1016.30
2018-04-07T01:46:55.524Z,1016.26
2018-04-07T01:47:55.545Z,1016.26
2018-04-07T01:48:55.553Z,1016.31
2018-04-07T01:49:55.562Z,1016.28
2018-04-07T01:50:55.572Z,1016.22
2018-04-07T01:51:55.941Z,1016.19
2018-04-07T01:52:55.607Z,1016.17
2018-04-07T01:53:55.612Z,1016.24
2018-04-07T01:54:55.630Z,1016.23
2018-04-07T01:55:55.640Z,1016.22
2018-04-07T01:56:55.649Z,1016.23
2018-04-07T01:57:55.670Z,1016.16
2018-04-07T01:58:55.680Z,1016.12
2018-04-07T01:59:55.688Z,1016.13
2018-04-07T02:00:55.713Z,1016.10
2018-04-07T02:01:55.722Z,1016.15
2018-04-07T02:02:55.728Z,1016.18
2018-04-07T02:03:55.737Z,1016.15
2018-04-07T02:04:55.759Z,1016.14
2018-04-07T02:05:55.769Z,1016.10
2018-04-07T02:06:55.776Z,1016.12
2018-04-07T02:07:55.798Z,1016.14
2018-04-07T02:08:55.806Z,1016.16
2018-04-07T02:09:55.816Z,1016.13
2018-04-07T02:10:55.837Z,1016.11
2018-04-07T02:11:55.861Z,1016.13
2018-04-07T02:12:55.857Z,1016.14
2018-04-07T02:13:55.880Z,1016.13
2018-04-07T02:14:55.885Z,1016.16
2018-04-07T02:15:55.893Z,1016.20
2018-04-07T02:16:55.914Z,1016.14
2018-04-07T02:17:55.923Z,1016.19
2018-04-07T02:18:55.933Z,1016.21
2018-04-07T02:19:55.943Z,1016.23
2018-04-07T02:20:55.962Z,1016.19
2018-04-07T02:21:56.322Z,1016.17
2018-04-07T02:22:55.984Z,1016.19
2018-04-07T02:23:56.001Z,1016.24
2018-04-07T02:24:56.011Z,1016.26
2018-04-07T02:25:56.019Z,1016.22
2018-04-07T02:26:56.042Z,1016.24
2018-04-07T02:27:56.050Z,1016.20
2018-04-07T02:28:56.058Z,1016.23
2018-04-07T02:29:56.080Z,1016.23
2018-04-07T02:30:56.089Z,1016.22
2018-04-07T02:31:56.110Z,1016.25
2018-04-07T02:32:56.168Z,1016.25
2018-04-07T02:33:56.129Z,1016.24
2018-04-07T02:34:56.138Z,1016.25
2018-04-07T02:35:56.147Z,1016.26
2018-04-07T02:36:56.168Z,1016.24
2018-04-07T02:37:56.178Z,1016.26
2018-04-07T02:38:56.188Z,1016.21
2018-04-07T02:39:56.207Z,1016.23
2018-04-07T02:40:56.214Z,1016.21
2018-04-07T02:41:56.429Z,1016.20
2018-04-07T02:42:56.245Z,1016.21
2018-04-07T02:43:56.263Z,1016.22
2018-04-07T02:44:56.264Z,1016.21
2018-04-07T02:45:56.274Z,1016.24
2018-04-07T02:46:56.294Z,1016.24
2018-04-07T02:47:56.304Z,1016.24
2018-04-07T02:48:56.312Z,1016.26
2018-04-07T02:49:56.334Z,1016.26
2018-04-07T02:50:56.343Z,1016.21
2018-04-07T02:51:56.365Z,1016.24
2018-04-07T02:52:56.361Z,1016.21
2018-04-07T02:53:56.382Z,1016.22
2018-04-07T02:54:56.390Z,1016.20
2018-04-07T02:55:56.398Z,1016.18
2018-04-07T02:56:56.421Z,1016.16
2018-04-07T02:57:56.430Z,1016.18
2018-04-07T02:58:56.438Z,1016.18
2018-04-07T02:59:56.448Z,1016.15
2018-04-07T03:00:56.468Z,1016.14
2018-04-07T03:01:56.478Z,1016.14
2018-04-07T03:02:56.490Z,1016.13
2018-04-07T03:03:56.508Z,1016.12
2018-04-07T03:04:56.517Z,1016.08
2018-04-07T03:05:56.525Z,1016.03
2018-04-07T03:06:56.546Z,1016.04
2018-04-07T03:07:56.557Z,1016.03
2018-04-07T03:08:56.564Z,1015.99
2018-04-07T03:09:56.573Z,1016.00
2018-04-07T03:10:56.595Z,1015.95
2018-04-07T03:11:56.603Z,1015.96
2018-04-07T03:12:56.613Z,1015.99
2018-04-07T03:13:56.839Z,1015.96
2018-04-07T03:14:56.642Z,1015.86
2018-04-07T03:15:56.652Z,1015.90
2018-04-07T03:16:56.660Z,1015.96
2018-04-07T03:17:56.682Z,1015.88
2018-04-07T03:18:56.691Z,1015.94
2018-04-07T03:19:56.700Z,1015.92
2018-04-07T03:20:56.720Z,1015.89
2018-04-07T03:21:56.732Z,1015.88
2018-04-07T03:22:56.739Z,1015.90
2018-04-07T03:23:56.748Z,1015.81
2018-04-07T03:24:56.769Z,1015.82
2018-04-07T03:25:56.778Z,1015.84
2018-04-07T03:26:56.787Z,1015.88
2018-04-07T03:27:56.809Z,1015.85
2018-04-07T03:28:56.819Z,1015.80
2018-04-07T03:29:56.827Z,1015.82
2018-04-07T03:30:56.836Z,1015.77
2018-04-07T03:31:56.856Z,1015.79
2018-04-07T03:32:56.876Z,1015.80
2018-04-07T03:33:56.874Z,1015.79
2018-04-07T03:34:57.097Z,1015.75
2018-04-07T03:35:56.906Z,1015.70
2018-04-07T03:36:56.926Z,1015.74
2018-04-07T03:37:56.923Z,1015.67
2018-04-07T03:38:56.945Z,1015.67
2018-04-07T03:39:56.952Z,1015.74
2018-04-07T03:40:56.963Z,1015.75
2018-04-07T03:41:56.984Z,1015.76
2018-04-07T03:42:56.991Z,1015.75
2018-04-07T03:43:57.001Z,1015.83
2018-04-07T03:44:57.022Z,1015.78
2018-04-07T03:45:57.044Z,1015.84
2018-04-07T03:46:57.045Z,1015.78
2018-04-07T03:47:57.048Z,1015.76
2018-04-07T03:48:57.070Z,1015.76
2018-04-07T03:49:57.080Z,1015.75
2018-04-07T03:50:57.088Z,1015.77
2018-04-07T03:51:57.099Z,1015.73
2018-04-07T03:52:57.118Z,1015.72
2018-04-07T03:53:57.127Z,1015.71
2018-04-07T03:54:57.137Z,1015.69
2018-04-07T03:55:57.158Z,1015.72
2018-04-07T03:56:57.167Z,1015.64
2018-04-07T03:57:57.175Z,1015.65
2018-04-07T03:58:57.198Z,1015.67
2018-04-07T03:59:57.205Z,1015.66
2018-04-07T04:00:57.214Z,1015.68
2018-04-07T04:01:57.427Z,1015.64
2018-04-07T04:02:57.245Z,1015.65
2018-04-07T04:03:57.254Z,1015.64
2018-04-07T04:04:57.262Z,1015.62
2018-04-07T04:05:57.284Z,1015.67
2018-04-07T04:06:57.294Z,1015.65
2018-04-07T04:07:57.301Z,1015.62
2018-04-07T04:08:57.323Z,1015.63
2018-04-07T04:09:57.333Z,1015.59
2018-04-07T04:10:57.340Z,1015.64
2018-04-07T04:11:57.350Z,1015.59
2018-04-07T04:12:57.371Z,1015.57
2018-04-07T04:13:57.380Z,1015.55
2018-04-07T04:14:57.390Z,1015.56
2018-04-07T04:15:57.414Z,1015.50
2018-04-07T04:16:57.419Z,1015.56
2018-04-07T04:17:57.428Z,1015.50
2018-04-07T04:18:57.449Z,1015.49
2018-04-07T04:19:57.458Z,1015.51
2018-04-07T04:20:57.468Z,1015.52
2018-04-07T04:21:57.478Z,1015.54
2018-04-07T04:22:57.497Z,1015.47
2018-04-07T04:23:57.518Z,1015.51
2018-04-07T04:24:57.515Z,1015.49
2018-04-07T04:25:57.537Z,1015.51
2018-04-07T04:26:57.547Z,1015.48
2018-04-07T04:27:57.554Z,1015.54
2018-04-07T04:28:57.575Z,1015.50
2018-04-07T04:29:57.585Z,1015.49
2018-04-07T04:30:57.594Z,1015.49
2018-04-07T04:31:57.603Z,1015.52
2018-04-07T04:32:57.624Z,1015.45
2018-04-07T04:33:57.633Z,1015.44
2018-04-07T04:34:57.643Z,1015.47
2018-04-07T04:35:57.668Z,1015.44
2018-04-07T04:36:57.672Z,1015.45
2018-04-07T04:37:57.681Z,1015.45
2018-04-07T04:38:57.703Z,1015.42
2018-04-07T04:39:57.710Z,1015.40
2018-04-07T04:40:57.720Z,1015.46
2018-04-07T04:41:57.730Z,1015.37
2018-04-07T04:42:57.751Z,1015.43
2018-04-07T04:43:57.760Z,1015.41
2018-04-07T04:44:57.770Z,1015.30
2018-04-07T04:45:57.789Z,1015.35
2018-04-07T04:46:57.798Z,1015.32
2018-04-07T04:47:57.807Z,1015.32
2018-04-07T04:48:57.828Z,1015.36
2018-04-07T04:49:57.841Z,1015.34
2018-04-07T04:50:57.846Z,1015.36
2018-04-07T04:51:57.857Z,1015.29
2018-04-07T04:52:57.877Z,1015.34
2018-04-07T04:53:57.885Z,1015.29
2018-04-07T04:54:57.897Z,1015.28
2018-04-07T04:55:57.917Z,1015.34
2018-04-07T04:56:57.927Z,1015.32
2018-04-07T04:57:57.933Z,1015.33
2018-04-07T04:58:57.955Z,1015.30
2018-04-07T04:59:57.964Z,1015.34
2018-04-07T05:00:57.973Z,1015.25
2018-04-07T05:01:57.995Z,1015.31
2018-04-07T05:02:58.016Z,1015.27
2018-04-07T05:03:58.013Z,1015.30
2018-04-07T05:04:58.034Z,1015.31
2018-04-07T05:05:58.042Z,1015.29
2018-04-07T05:06:58.052Z,1015.27
2018-04-07T05:07:58.072Z,1015.23
2018-04-07T05:08:58.081Z,1015.24
2018-04-07T05:09:58.091Z,1015.18
2018-04-07T05:10:58.116Z,1015.24
2018-04-07T05:11:58.121Z,1015.23
2018-04-07T05:12:58.131Z,1015.23
2018-04-07T05:13:58.150Z,1015.24
2018-04-07T05:14:58.159Z,1015.24
2018-04-07T05:15:58.169Z,1015.25
2018-04-07T05:16:58.191Z,1015.24
2018-04-07T05:17:58.199Z,1015.23
2018-04-07T05:18:58.208Z,1015.24
2018-04-07T05:19:58.230Z,1015.14
2018-04-07T05:20:58.238Z,1015.19
2018-04-07T05:21:58.248Z,1015.20
2018-04-07T05:22:58.268Z,1015.18
2018-04-07T05:23:58.277Z,1015.15
2018-04-07T05:24:58.345Z,1015.14
2018-04-07T05:25:58.308Z,1015.09
2018-04-07T05:26:58.316Z,1015.09
2018-04-07T05:27:58.327Z,1015.05
2018-04-07T05:28:58.348Z,1015.11
2018-04-07T05:29:58.355Z,1015.17
2018-04-07T05:30:58.386Z,1015.12
2018-04-07T05:31:58.386Z,1015.10
2018-04-07T05:32:58.394Z,1015.23
2018-04-07T05:33:58.428Z,1015.17
2018-04-07T05:34:58.425Z,1015.13
2018-04-07T05:35:58.435Z,1015.13
2018-04-07T05:36:58.455Z,1015.17
2018-04-07T05:37:58.468Z,1015.18
2018-04-07T05:38:58.486Z,1015.17
2018-04-07T05:39:58.495Z,1015.19
2018-04-07T05:40:58.504Z,1015.14
2018-04-07T05:41:58.525Z,1015.14
2018-04-07T05:42:58.581Z,1015.16
2018-04-07T05:43:58.554Z,1015.14
2018-04-07T05:44:58.565Z,1015.10
2018-04-07T05:45:58.575Z,1015.17
2018-04-07T05:46:58.593Z,1015.14
2018-04-07T05:47:58.607Z,1015.13
2018-04-07T05:48:58.625Z,1015.17
2018-04-07T05:49:58.635Z,1015.11
2018-04-07T05:50:58.656Z,1015.14
2018-04-07T05:51:58.663Z,1015.18
2018-04-07T05:52:58.673Z,1015.12
2018-04-07T05:53:58.694Z,1015.12
2018-04-07T05:54:58.704Z,1015.11
2018-04-07T05:55:58.726Z,1015.05
2018-04-07T05:56:58.735Z,1015.09
2018-04-07T05:57:58.753Z,1015.06
2018-04-07T05:58:58.763Z,1015.08
2018-04-07T05:59:58.772Z,1015.18
2018-04-07T06:00:58.807Z,1015.10
2018-04-07T06:01:58.803Z,1015.07
2018-04-07T06:02:58.824Z,1015.06
2018-04-07T06:03:59.036Z,1015.07
2018-04-07T06:04:58.866Z,1015.05
2018-04-07T06:05:58.863Z,1015.07
2018-04-07T06:06:58.885Z,1015.07
2018-04-07T06:07:58.892Z,1015.11
2018-04-07T06:08:58.914Z,1015.10
2018-04-07T06:09:58.925Z,1015.07
2018-04-07T06:10:58.944Z,1015.04
2018-04-07T06:11:58.954Z,1015.05
2018-04-07T06:12:58.968Z,1015.07
2018-04-07T06:13:58.986Z,1015.07
2018-04-07T06:14:58.994Z,1015.13
2018-04-07T06:15:59.014Z,1015.18
2018-04-07T06:16:59.024Z,1015.17
2018-04-07T06:18:59.055Z,1015.14
2018-04-07T06:19:59.076Z,1015.11
2018-04-07T06:20:59.085Z,1015.07
2018-04-07T06:21:59.106Z,1015.10
2018-04-07T06:22:59.115Z,1015.03
2018-04-07T06:23:59.148Z,1014.99
2018-04-07T06:24:59.148Z,1015.04
2018-04-07T06:25:59.166Z,1015.04
2018-04-07T06:26:59.176Z,1014.99
2018-04-07T06:27:59.196Z,1015.03
2018-04-07T06:28:59.206Z,1015.02
2018-04-07T06:29:59.227Z,1014.97
2018-04-07T06:30:59.248Z,1014.97
2018-04-07T06:32:59.278Z,1015.01
2018-04-07T06:33:59.492Z,1014.96
2018-04-07T06:34:59.309Z,1015.00
2018-04-07T06:35:59.316Z,1014.95
2018-04-07T06:36:59.540Z,1014.98
2018-04-07T06:37:59.348Z,1014.96
2018-04-07T06:38:59.370Z,1014.95
2018-04-07T06:39:59.378Z,1014.95
2018-04-07T06:40:59.399Z,1014.91
2018-04-07T06:41:59.645Z,1014.92
2018-04-07T06:42:59.430Z,1014.90
2018-04-07T06:43:59.438Z,1014.89
2018-04-07T06:44:59.461Z,1014.84
2018-04-07T06:45:59.469Z,1014.89
2018-04-07T06:46:59.490Z,1014.87
2018-04-07T06:47:59.501Z,1014.87
2018-04-07T06:48:59.567Z,1014.82
2018-04-07T06:49:59.541Z,1014.83
2018-04-07T06:50:59.564Z,1014.81
2018-04-07T06:51:59.574Z,1014.79
2018-04-07T06:52:59.782Z,1014.81
2018-04-07T06:53:59.601Z,1014.75
2018-04-07T06:54:59.637Z,1014.83
2018-04-07T06:55:59.634Z,1014.82
2018-04-07T06:56:59.642Z,1014.80
2018-04-07T06:57:59.662Z,1014.83
2018-04-07T06:59:59.694Z,1014.78
2018-04-07T07:00:59.715Z,1014.73
2018-04-07T07:02:00.073Z,1014.70
2018-04-07T07:03:59.965Z,1014.70
2018-04-07T07:04:59.775Z,1014.64
2018-04-07T07:05:59.796Z,1014.71
2018-04-07T07:06:59.819Z,1014.67
2018-04-07T07:07:59.827Z,1014.67
2018-04-07T07:08:59.888Z,1014.63
2018-04-07T07:09:59.869Z,1014.64
2018-04-07T07:10:59.879Z,1014.65
2018-04-07T07:11:59.900Z,1014.64
2018-04-07T07:12:59.921Z,1014.65
2018-04-07T07:13:59.944Z,1014.65
2018-04-07T07:15:59.972Z,1014.68
2018-04-07T07:16:59.994Z,1014.67
2018-04-07T07:18:00.007Z,1014.67
2018-04-07T07:19:00.026Z,1014.69
2018-04-07T07:20:00.046Z,1014.69
2018-04-07T07:21:00.068Z,1014.73
2018-04-07T07:22:00.076Z,1014.73
2018-04-07T07:23:00.097Z,1014.80
2018-04-07T07:24:00.119Z,1014.73
2018-04-07T07:25:00.140Z,1014.76
2018-04-07T07:26:00.150Z,1014.74
2018-04-07T07:27:00.170Z,1014.75
2018-04-07T07:28:00.192Z,1014.72
2018-04-07T07:29:00.214Z,1014.76
2018-04-07T07:31:00.245Z,1014.73
2018-04-07T07:32:00.264Z,1014.68
2018-04-07T07:33:00.287Z,1014.71
2018-04-07T07:34:00.307Z,1014.73
2018-04-07T07:35:00.327Z,1014.67
2018-04-07T07:36:00.338Z,1014.65
2018-04-07T07:37:00.709Z,1014.57
2018-04-07T07:39:00.404Z,1014.62
2018-04-07T07:40:00.424Z,1014.52
2018-04-07T07:41:00.433Z,1014.57
2018-04-07T07:42:00.485Z,1014.58
2018-04-07T07:43:00.478Z,1014.56
2018-04-07T07:44:00.496Z,1014.58
2018-04-07T07:45:00.518Z,1014.51
2018-04-07T07:46:00.539Z,1014.56
2018-04-07T07:47:00.560Z,1014.53
2018-04-07T07:48:00.581Z,1014.55
2018-04-07T07:49:00.616Z,1014.56
2018-04-07T07:50:00.628Z,1014.53
2018-04-07T07:51:00.654Z,1014.55
2018-04-07T07:52:00.668Z,1014.56
2018-04-07T07:53:00.688Z,1014.50
2018-04-07T07:54:00.713Z,1014.51
2018-04-07T07:55:00.731Z,1014.49
2018-04-07T07:56:00.753Z,1014.44
2018-04-07T07:57:00.775Z,1014.46
2018-04-07T07:59:00.817Z,1014.42
2018-04-07T08:00:01.189Z,1014.42
2018-04-07T08:01:01.073Z,1014.47
2018-04-07T08:02:01.095Z,1014.45
2018-04-07T08:03:00.906Z,1014.46
2018-04-07T08:04:00.925Z,1014.44
2018-04-07T08:05:00.947Z,1014.43
2018-04-07T08:06:00.967Z,1014.52
2018-04-07T08:07:01.203Z,1014.44
2018-04-07T08:08:00.999Z,1014.44
2018-04-07T08:09:01.020Z,1014.36
2018-04-07T08:10:01.050Z,1014.44
2018-04-07T08:11:01.062Z,1014.37
2018-04-07T08:12:01.089Z,1014.38
2018-04-07T08:13:01.152Z,1014.40
2018-04-07T08:14:01.126Z,1014.46
2018-04-07T08:15:01.148Z,1014.42
2018-04-07T08:16:01.170Z,1014.43
2018-04-07T08:17:01.179Z,1014.42
2018-04-07T08:18:01.542Z,1014.43
2018-04-07T08:19:01.220Z,1014.42
2018-04-07T08:20:01.243Z,1014.45
2018-04-07T08:21:01.264Z,1014.47
2018-04-07T08:22:01.284Z,1014.44
2018-04-07T08:23:01.306Z,1014.44
2018-04-07T08:24:01.322Z,1014.45
2018-04-07T08:25:01.348Z,1014.38
2018-04-07T08:26:01.358Z,1014.44
2018-04-07T08:27:01.380Z,1014.40
2018-04-07T08:28:01.749Z,1014.35
2018-04-07T08:29:01.422Z,1014.43
2018-04-07T08:31:01.455Z,1014.37
2018-04-07T08:32:01.537Z,1014.35
2018-04-07T08:33:01.495Z,1014.32
2018-04-07T08:34:01.519Z,1014.38
2018-04-07T08:35:01.547Z,1014.31
2018-04-07T08:36:01.560Z,1014.31
2018-04-07T08:37:01.568Z,1014.31
2018-04-07T08:38:01.792Z,1014.31
2018-04-07T08:39:01.611Z,1014.28
2018-04-07T08:40:01.633Z,1014.25
2018-04-07T08:41:01.654Z,1014.26
2018-04-07T08:42:01.676Z,1014.23
2018-04-07T08:43:01.696Z,1014.15
2018-04-07T08:44:02.054Z,1014.23
2018-04-07T08:45:01.929Z,1014.21
2018-04-07T08:47:01.780Z,1014.13
2018-04-07T08:48:01.790Z,1014.19
2018-04-07T08:49:01.812Z,1014.20
2018-04-07T08:50:01.834Z,1014.18
2018-04-07T08:51:01.893Z,1014.13
2018-04-07T08:52:02.066Z,1014.18
2018-04-07T08:53:01.887Z,1014.19
2018-04-07T08:54:01.907Z,1013.94
2018-04-07T08:55:01.929Z,1014.15
2018-04-07T08:56:02.154Z,1014.07
2018-04-07T08:57:01.972Z,1014.11
2018-04-07T08:58:01.994Z,1014.07
2018-04-07T08:59:02.002Z,1014.10
2018-04-07T09:00:02.023Z,1013.98
2018-04-07T09:02:02.075Z,1014.02
2018-04-07T09:03:02.086Z,1014.07
2018-04-07T09:04:02.114Z,1013.96
2018-04-07T09:05:02.129Z,1014.03
2018-04-07T09:06:02.150Z,1014.05
2018-04-07T09:07:02.160Z,1014.07
2018-04-07T09:08:02.183Z,1014.02
2018-04-07T09:09:02.203Z,1014.06
2018-04-07T09:10:02.225Z,1014.04
2018-04-07T09:11:02.245Z,1014.02
2018-04-07T09:12:02.818Z,1014.05
2018-04-07T09:13:02.298Z,1013.99
2018-04-07T09:15:02.318Z,1014.02
2018-04-07T09:16:02.339Z,1013.97
2018-04-07T09:18:02.382Z,1013.94
2018-04-07T09:19:02.404Z,1013.93
2018-04-07T09:20:02.426Z,1013.92
2018-04-07T09:21:02.446Z,1013.93
2018-04-07T09:22:02.477Z,1013.89
2018-04-07T09:23:02.503Z,1013.93
2018-04-07T09:24:02.702Z,1013.95
2018-04-07T09:25:02.530Z,1013.92
2018-04-07T09:26:02.542Z,1013.90
2018-04-07T09:27:02.563Z,1013.90
2018-04-07T09:28:02.584Z,1013.96
2018-04-07T09:29:02.653Z,1013.94
2018-04-07T09:30:02.630Z,1013.95
2018-04-07T09:31:02.649Z,1013.91
2018-04-07T09:32:02.673Z,1013.94
2018-04-07T09:33:02.679Z,1013.89
2018-04-07T09:34:02.700Z,1013.95
2018-04-07T09:35:02.733Z,1013.87
2018-04-07T09:36:02.742Z,1013.90
2018-04-07T09:37:02.810Z,1013.85
2018-04-07T09:38:02.786Z,1013.82
2018-04-07T09:39:02.806Z,1013.82
2018-04-07T09:40:03.082Z,1013.80
2018-04-07T09:41:02.849Z,1013.81
2018-04-07T09:42:02.907Z,1013.83
2018-04-07T09:43:02.892Z,1013.83
2018-04-07T09:44:02.919Z,1013.83
2018-04-07T09:45:02.936Z,1013.79
2018-04-07T09:46:02.945Z,1013.76
2018-04-07T09:47:03.315Z,1013.77
2018-04-07T09:48:02.987Z,1013.79
2018-04-07T09:49:03.411Z,1013.74
2018-04-07T09:50:03.030Z,1013.73
2018-04-07T09:51:03.401Z,1013.72
2018-04-07T09:53:03.094Z,1013.72
2018-04-07T09:54:03.115Z,1013.70
2018-04-07T09:55:03.338Z,1013.69
2018-04-07T09:56:03.159Z,1013.67
2018-04-07T09:57:03.180Z,1013.69
2018-04-07T09:58:03.203Z,1013.67
2018-04-07T09:59:03.223Z,1013.60
2018-04-07T10:00:03.244Z,1013.62
2018-04-07T10:01:03.264Z,1013.62
2018-04-07T10:02:03.286Z,1013.61
2018-04-07T10:03:03.510Z,1013.56
2018-04-07T10:04:03.329Z,1013.61
2018-04-07T10:05:03.351Z,1013.62
2018-04-07T10:06:03.374Z,1013.57
2018-04-07T10:07:03.743Z,1013.56
2018-04-07T10:08:03.416Z,1013.52
2018-04-07T10:09:03.436Z,1013.57
2018-04-07T10:10:03.458Z,1013.54
2018-04-07T10:11:03.489Z,1013.57
2018-04-07T10:12:03.500Z,1013.56
2018-04-07T10:13:03.520Z,1013.50
2018-04-07T10:14:03.531Z,1013.49
2018-04-07T10:15:03.553Z,1013.49
2018-04-07T10:16:03.573Z,1013.43
2018-04-07T10:17:03.594Z,1013.43
2018-04-07T10:18:03.617Z,1013.41
2018-04-07T10:19:03.638Z,1013.43
2018-04-07T10:20:03.659Z,1013.40
2018-04-07T10:21:04.045Z,1013.39
2018-04-07T10:22:03.702Z,1013.33
2018-04-07T10:23:03.724Z,1013.33
2018-04-07T10:24:03.746Z,1013.41
2018-04-07T10:25:03.767Z,1013.32
2018-04-07T10:26:03.810Z,1013.32
2018-04-07T10:27:03.821Z,1013.34
2018-04-07T10:28:03.843Z,1013.32
2018-04-07T10:29:04.214Z,1013.26
2018-04-07T10:30:03.886Z,1013.28
2018-04-07T10:31:04.256Z,1013.28
2018-04-07T10:32:04.277Z,1013.26
2018-04-07T10:33:03.949Z,1013.20
2018-04-07T10:34:03.979Z,1013.22
2018-04-07T10:35:04.342Z,1013.25
2018-04-07T10:36:04.015Z,1013.17
2018-04-07T10:38:04.057Z,1013.19
2018-04-07T10:39:04.428Z,1013.17
2018-04-07T10:40:04.100Z,1013.18
2018-04-07T10:41:04.324Z,1013.22
2018-04-07T10:42:04.354Z,1013.13
2018-04-07T10:43:04.167Z,1013.13
2018-04-07T10:44:04.197Z,1013.09
2018-04-07T10:45:04.222Z,1013.11
2018-04-07T10:46:04.240Z,1013.07
2018-04-07T10:47:04.275Z,1013.10
2018-04-07T10:48:04.283Z,1013.09
2018-04-07T10:49:04.318Z,1013.02
2018-04-07T10:50:04.341Z,1012.98
2018-04-07T10:51:04.361Z,1012.96
2018-04-07T10:52:04.393Z,1012.94
2018-04-07T10:54:04.448Z,1012.92
2018-04-07T10:55:04.470Z,1012.96
2018-04-07T10:56:04.504Z,1012.96
2018-04-07T10:57:04.525Z,1012.95
2018-04-07T10:58:04.560Z,1012.90
2018-04-07T10:59:04.580Z,1012.94
2018-04-07T11:00:04.829Z,1012.87
2018-04-07T11:01:04.637Z,1012.84
2018-04-07T11:02:04.671Z,1012.80
2018-04-07T11:04:04.737Z,1012.87
2018-04-07T11:05:04.759Z,1012.78
2018-04-07T11:06:04.842Z,1012.76
2018-04-07T11:07:04.829Z,1012.72
2018-04-07T11:08:04.860Z,1012.71
2018-04-07T11:09:04.895Z,1012.73
2018-04-07T11:10:04.927Z,1012.71
2018-04-07T11:11:04.962Z,1012.73
2018-04-07T11:12:04.996Z,1012.68
2018-04-07T11:13:05.031Z,1012.66
2018-04-07T11:14:05.065Z,1012.68
2018-04-07T11:15:05.098Z,1012.65
2018-04-07T11:16:05.132Z,1012.63
2018-04-07T11:17:05.166Z,1012.65
2018-04-07T11:18:05.212Z,1012.60
2018-04-07T11:19:05.233Z,1012.59
2018-04-07T11:20:05.267Z,1012.72
2018-04-07T11:21:05.302Z,1012.68
2018-04-07T11:22:05.336Z,1012.63
2018-04-07T11:23:05.369Z,1012.58
2018-04-07T11:24:05.402Z,1012.59
2018-04-07T11:25:05.437Z,1012.63
2018-04-07T11:26:05.470Z,1012.64
2018-04-07T11:27:05.504Z,1012.63
2018-04-07T11:28:05.526Z,1012.60
2018-04-07T11:29:05.558Z,1012.64
2018-04-07T11:30:05.594Z,1012.63
2018-04-07T11:31:05.639Z,1012.59
2018-04-07T11:32:05.650Z,1012.64
2018-04-07T11:33:05.682Z,1012.72
2018-04-07T11:34:05.716Z,1012.70
2018-04-07T11:35:05.750Z,1012.64
2018-04-07T11:36:05.772Z,1012.70
2018-04-07T11:37:05.811Z,1012.70
2018-04-07T11:38:05.840Z,1012.66
2018-04-07T11:39:05.873Z,1012.59
2018-04-07T11:40:05.894Z,1012.57
2018-04-07T11:41:05.930Z,1012.58
2018-04-07T11:42:05.968Z,1012.51
2018-04-07T11:43:05.997Z,1012.52
2018-04-07T11:44:06.029Z,1012.51
2018-04-07T11:45:06.057Z,1012.46
2018-04-07T11:46:06.085Z,1012.44
2018-04-07T11:47:06.121Z,1012.44
2018-04-07T11:48:06.158Z,1012.40
2018-04-07T11:49:06.187Z,1012.36
2018-04-07T11:50:06.427Z,1012.32
2018-04-07T11:51:06.256Z,1012.27
2018-04-07T11:52:06.291Z,1012.31
2018-04-07T11:53:06.360Z,1012.33
2018-04-07T11:54:06.356Z,1012.33
2018-04-07T11:55:06.390Z,1012.27
2018-04-07T11:56:06.424Z,1012.26
2018-04-07T11:57:06.457Z,1012.23
2018-04-07T11:58:06.491Z,1012.21
2018-04-07T11:59:06.535Z,1012.16
2018-04-07T12:00:06.560Z,1012.17
2018-04-07T12:01:06.593Z,1012.19
2018-04-07T12:02:06.628Z,1012.11
2018-04-07T12:03:06.674Z,1012.15
2018-04-07T12:04:06.695Z,1012.16
2018-04-07T12:05:06.729Z,1012.02
2018-04-07T12:06:06.763Z,1011.98
2018-04-07T12:07:06.799Z,1012.04
2018-04-07T12:08:06.831Z,1012.09
2018-04-07T12:09:06.865Z,1012.07
2018-04-07T12:10:06.911Z,1012.05
2018-04-07T12:11:06.944Z,1012.00
2018-04-07T12:12:06.978Z,1012.01
2018-04-07T12:13:07.013Z,1011.96
2018-04-07T12:14:07.046Z,1012.00
2018-04-07T12:15:07.080Z,1012.04
2018-04-07T12:16:07.102Z,1012.03
2018-04-07T12:17:07.135Z,1011.99
2018-04-07T12:18:07.169Z,1011.98
2018-04-07T12:19:07.208Z,1011.94
2018-04-07T12:20:07.237Z,1011.97
2018-04-07T12:21:07.270Z,1011.94
2018-04-07T12:22:07.292Z,1011.93
2018-04-07T12:23:07.326Z,1011.94
2018-04-07T12:24:07.360Z,1011.97
2018-04-07T12:25:07.386Z,1011.94